Time;durP1;ratioP1;P1;durP2;ratioP2;P2;SDS_P1;SDS_P2;PMS_P1;PMS_P2;Temp;Humidity;BMP_temperature;BMP_pressure;BME280_temperature;BME280_humidity;BME280_pressure;Samples;Min_cycle;Max_cycle;Signal;HPM_P1;HPM_P2
2023/12/06 00:00:09;;;;;;;21.17;11.13;;;;;;;5.01;100.00;101511.72;2096882;28;20188;-65
2023/12/06 00:01:10;;;;;;;29.75;11.77;;;;;;;5.03;100.00;101520.38;2097245;28;20186;-64
2023/12/06 00:02:10;;;;;;;23.37;11.83;;;;;;;5.00;100.00;101523.88;2097217;28;20202;-64
2023/12/06 00:03:11;;;;;;;20.77;11.70;;;;;;;4.98;100.00;101522.69;2095759;28;20198;-64
2023/12/06 00:04:11;;;;;;;18.47;10.83;;;;;;;5.00;100.00;101518.38;2088852;28;20182;-64
2023/12/06 00:05:12;;;;;;;26.00;11.93;;;;;;;5.03;100.00;101523.13;2088852;28;20174;-64
2023/12/06 00:06:12;;;;;;;19.13;10.80;;;;;;;4.89;100.00;101509.22;2095319;28;20195;-65
2023/12/06 00:07:13;;;;;;;20.90;12.27;;;;;;;4.97;100.00;101516.38;2096489;28;20195;-64
2023/12/06 00:08:13;;;;;;;20.73;11.70;;;;;;;5.02;100.00;101521.53;2092524;28;20692;-64
2023/12/06 00:09:14;;;;;;;21.87;11.23;;;;;;;5.03;100.00;101519.59;2089010;28;20258;-64
2023/12/06 00:10:15;;;;;;;24.95;11.90;;;;;;;4.97;100.00;101507.38;2090699;28;20189;-65
2023/12/06 00:11:15;;;;;;;23.93;11.40;;;;;;;5.05;100.00;101522.75;2097350;28;20181;-64
2023/12/06 00:12:16;;;;;;;23.10;11.37;;;;;;;5.06;100.00;101524.31;2097272;28;20178;-64
2023/12/06 00:13:16;;;;;;;20.80;10.83;;;;;;;5.08;100.00;101513.78;2096482;28;20211;-65
2023/12/06 00:14:17;;;;;;;22.13;11.73;;;;;;;5.11;100.00;101515.75;2096633;28;20201;-64
2023/12/06 00:15:17;;;;;;;22.33;11.83;;;;;;;5.16;100.00;101513.47;2097070;28;20232;-65
2023/12/06 00:16:18;;;;;;;18.27;10.43;;;;;;;4.05;100.00;101329.66;2097184;28;20557;-64
2023/12/06 00:17:19;;;;;;;21.57;10.77;;;;;;;4.89;100.00;101454.28;2098058;28;20176;-65
2023/12/06 00:18:19;;;;;;;20.63;11.43;;;;;;;5.21;100.00;101512.34;2105457;28;20191;-64
2023/12/06 00:19:20;;;;;;;23.17;12.40;;;;;;;5.17;100.00;101508.75;2090632;28;20190;-64
2023/12/06 00:20:20;;;;;;;19.27;10.63;;;;;;;5.18;100.00;101504.88;2093509;28;20187;-64
2023/12/06 00:21:21;;;;;;;19.07;10.73;;;;;;;5.25;100.00;101511.25;2093272;28;20238;-64
2023/12/06 00:22:22;;;;;;;19.05;10.68;;;;;;;5.22;100.00;101506.47;2091035;28;20185;-64
2023/12/06 00:23:23;;;;;;;21.00;10.80;;;;;;;5.21;100.00;101499.41;2096498;28;20290;-65
2023/12/06 00:24:23;;;;;;;18.47;10.10;;;;;;;4.59;100.00;101408.78;2097288;28;20176;-64
2023/12/06 00:25:24;;;;;;;16.13;9.57;;;;;;;5.21;100.00;101509.59;2097036;28;20177;-64
2023/12/06 00:26:24;;;;;;;22.40;10.90;;;;;;;5.21;100.00;101504.09;2095969;28;20205;-66
2023/12/06 00:27:25;;;;;;;20.53;9.60;;;;;;;5.18;100.00;101502.91;2096752;28;20268;-64
2023/12/06 00:28:25;;;;;;;19.03;10.17;;;;;;;5.23;100.00;101508.06;2097091;28;20192;-64
2023/12/06 00:29:26;;;;;;;18.43;9.83;;;;;;;5.22;100.00;101501.00;2096817;28;20177;-64
2023/12/06 00:30:26;;;;;;;19.20;10.43;;;;;;;5.26;100.00;101506.53;2097172;28;20174;-64
2023/12/06 00:31:27;;;;;;;16.73;9.43;;;;;;;5.19;100.00;101498.97;2096817;28;20207;-65
2023/12/06 00:32:27;;;;;;;20.90;10.60;;;;;;;5.12;100.00;101487.91;2090509;28;20271;-64
2023/12/06 00:33:28;;;;;;;20.70;9.83;;;;;;;4.28;100.00;101355.06;2093139;28;20583;-65
2023/12/06 00:34:29;;;;;;;23.98;10.05;;;;;;;5.27;100.00;101511.66;2096879;28;20674;-64
2023/12/06 00:35:29;;;;;;;19.30;10.27;;;;;;;5.32;100.00;101511.31;2096788;28;20550;-64
2023/12/06 00:36:30;;;;;;;19.47;9.57;;;;;;;5.31;100.00;101503.44;2097171;28;20180;-64
2023/12/06 00:37:30;;;;;;;16.10;9.20;;;;;;;5.32;100.00;101505.00;2096864;28;20176;-64
2023/12/06 00:38:32;;;;;;;19.70;9.97;;;;;;;5.33;100.00;101510.16;2097083;28;20200;-64
2023/12/06 00:39:32;;;;;;;20.90;10.00;;;;;;;5.30;100.00;101510.91;2089390;28;20559;-64
2023/12/06 00:40:33;;;;;;;15.97;9.50;;;;;;;5.19;100.00;101487.22;2088549;28;20211;-64
2023/12/06 00:41:33;;;;;;;15.00;9.30;;;;;;;5.30;100.00;101508.16;2088677;28;20667;-64
2023/12/06 00:42:34;;;;;;;21.57;8.80;;;;;;;5.33;100.00;101510.16;2088656;28;20202;-64
2023/12/06 00:43:34;;;;;;;16.97;8.50;;;;;;;5.32;100.00;101508.56;2090492;28;20184;-64
2023/12/06 00:44:35;;;;;;;15.73;9.37;;;;;;;5.40;100.00;101512.19;2096746;28;20192;-65
2023/12/06 00:45:36;;;;;;;18.13;9.87;;;;;;;5.39;100.00;101507.88;2097133;28;20274;-64
2023/12/06 00:46:36;;;;;;;17.07;9.00;;;;;;;5.42;100.00;101498.84;2096505;28;20724;-65
2023/12/06 00:47:37;;;;;;;17.57;8.23;;;;;;;5.38;100.00;101504.31;2096960;28;20658;-64
2023/12/06 00:48:37;;;;;;;17.23;8.90;;;;;;;5.41;100.00;101503.56;2096733;28;20662;-64
2023/12/06 00:49:38;;;;;;;17.37;9.00;;;;;;;5.43;100.00;101498.47;2097181;28;20700;-65
2023/12/06 00:50:38;;;;;;;15.67;8.50;;;;;;;5.41;100.00;101500.81;2096402;28;20656;-64
2023/12/06 00:51:39;;;;;;;14.47;8.50;;;;;;;4.78;100.00;101403.91;2097430;28;20182;-64
2023/12/06 00:52:40;;;;;;;13.98;8.52;;;;;;;5.40;100.00;101498.44;2088675;28;20183;-64
2023/12/06 00:53:40;;;;;;;15.40;9.07;;;;;;;5.30;100.00;101490.88;2095072;28;20233;-64
2023/12/06 00:54:41;;;;;;;16.93;9.40;;;;;;;5.35;100.00;101502.34;2096919;28;20235;-65
2023/12/06 00:55:41;;;;;;;16.67;9.43;;;;;;;5.34;100.00;101500.72;2091794;28;20196;-64
2023/12/06 00:56:42;;;;;;;15.53;9.13;;;;;;;5.38;100.00;101503.53;2090640;28;20214;-64
2023/12/06 00:57:42;;;;;;;16.30;9.10;;;;;;;5.39;100.00;101494.13;2090416;28;20179;-64
2023/12/06 00:58:43;;;;;;;14.33;8.70;;;;;;;5.38;100.00;101492.53;2096890;28;20200;-64
2023/12/06 00:59:43;;;;;;;14.97;8.90;;;;;;;5.38;100.00;101495.28;2096961;28;20280;-64
2023/12/06 01:00:44;;;;;;;17.17;10.07;;;;;;;4.64;100.00;101372.75;2091478;28;20218;-64
2023/12/06 01:01:45;;;;;;;14.77;8.80;;;;;;;5.36;100.00;101492.09;2095387;28;20539;-64
2023/12/06 01:02:46;;;;;;;15.83;8.43;;;;;;;5.37;100.00;101489.00;2098121;28;20185;-65
2023/12/06 01:03:46;;;;;;;16.70;9.10;;;;;;;5.36;100.00;101489.38;2096252;28;20687;-64
2023/12/06 01:04:50;;;;;;;15.67;9.13;;;;;;;5.37;100.00;101486.25;2089974;28;20175;-64
2023/12/06 01:05:53;;;;;;;15.55;8.00;;;;;;;5.37;100.00;101491.75;2090170;28;20207;-64
2023/12/06 01:06:53;;;;;;;16.60;8.73;;;;;;;4.97;100.00;101428.47;2098445;28;20178;-66
2023/12/06 01:07:54;;;;;;;15.53;8.30;;;;;;;5.35;100.00;101494.09;2090826;28;20186;-65
2023/12/06 01:08:54;;;;;;;15.00;9.47;;;;;;;5.36;100.00;101495.66;2095538;28;20198;-64
2023/12/06 01:09:55;;;;;;;15.30;8.90;;;;;;;5.30;100.00;101482.63;2098299;28;20180;-64
2023/12/06 01:10:55;;;;;;;15.53;8.73;;;;;;;5.33;100.00;101488.16;2097884;28;20679;-64
2023/12/06 01:11:58;;;;;;;14.13;8.60;;;;;;;5.37;100.00;101485.44;2098362;28;20177;-64
2023/12/06 01:12:58;;;;;;;14.25;8.68;;;;;;;5.37;100.00;101483.50;2098362;28;20608;-64
2023/12/06 01:13:59;;;;;;;16.43;9.13;;;;;;;5.33;100.00;101479.91;2097977;28;20195;-64
2023/12/06 01:14:59;;;;;;;15.40;8.77;;;;;;;5.33;100.00;101484.63;2098440;28;20595;-64
2023/12/06 01:16:00;;;;;;;17.43;9.07;;;;;;;4.63;100.00;101384.91;2098646;28;20188;-64
2023/12/06 01:17:00;;;;;;;13.80;8.30;;;;;;;5.30;100.00;101485.38;2098384;28;20189;-64
2023/12/06 01:18:01;;;;;;;17.17;8.30;;;;;;;5.30;100.00;101477.94;2095006;28;20193;-64
2023/12/06 01:19:01;;;;;;;15.17;8.50;;;;;;;5.33;100.00;101479.13;2091465;28;20262;-64
2023/12/06 01:20:03;;;;;;;13.97;8.20;;;;;;;5.30;100.00;101477.13;2098097;28;20185;-64
2023/12/06 01:21:03;;;;;;;15.07;8.40;;;;;;;5.33;100.00;101476.38;2098017;28;20184;-64
2023/12/06 01:22:04;;;;;;;15.97;9.03;;;;;;;5.31;100.00;101478.69;2091468;28;20192;-64
2023/12/06 01:23:07;;;;;;;15.53;8.50;;;;;;;5.34;100.00;101477.97;2095099;28;20208;-64
2023/12/06 01:24:08;;;;;;;13.38;8.40;;;;;;;5.32;100.00;101472.03;2098211;28;20696;-64
2023/12/06 01:25:09;;;;;;;15.60;8.17;;;;;;;4.44;100.00;101330.97;2095268;28;20190;-64
2023/12/06 01:26:09;;;;;;;16.33;8.50;;;;;;;5.34;100.00;101472.47;2092043;28;20184;-64
2023/12/06 01:27:10;;;;;;;16.87;9.33;;;;;;;5.36;100.00;101472.88;2097121;28;20205;-64
2023/12/06 01:28:10;;;;;;;17.10;9.27;;;;;;;5.37;100.00;101477.19;2089956;28;20252;-65
2023/12/06 01:29:11;;;;;;;11.43;7.70;;;;;;;5.35;100.00;101469.34;2097695;28;20233;-64
2023/12/06 01:30:12;;;;;;;15.17;8.67;;;;;;;5.36;100.00;101470.91;2091362;28;20276;-64
2023/12/06 01:31:13;;;;;;;14.97;8.57;;;;;;;5.35;100.00;101472.09;2094468;28;20195;-65
2023/12/06 01:32:13;;;;;;;17.92;8.55;;;;;;;5.21;100.00;101455.44;2097858;28;20198;-64
2023/12/06 01:33:14;;;;;;;18.73;8.77;;;;;;;4.51;100.00;101338.50;2097736;28;20224;-64
2023/12/06 01:34:15;;;;;;;17.03;8.93;;;;;;;5.33;100.00;101463.41;2098157;28;20183;-64
2023/12/06 01:35:15;;;;;;;19.40;9.17;;;;;;;5.30;100.00;101460.63;2098058;28;20173;-65
2023/12/06 01:36:16;;;;;;;13.87;8.07;;;;;;;5.26;100.00;101457.84;2089887;28;20622;-65
2023/12/06 01:37:16;;;;;;;13.30;8.10;;;;;;;5.27;100.00;101459.44;2096809;28;20188;-64
2023/12/06 01:38:17;;;;;;;16.93;9.07;;;;;;;5.25;100.00;101464.53;2092786;28;20268;-64
2023/12/06 01:39:18;;;;;;;15.63;8.63;;;;;;;5.28;100.00;101460.25;2094019;28;20332;-65
2023/12/06 01:40:18;;;;;;;16.33;8.33;;;;;;;5.23;100.00;101460.56;2095514;28;20679;-64
2023/12/06 01:41:19;;;;;;;16.77;8.50;;;;;;;5.23;100.00;101455.06;2091222;28;20747;-65
2023/12/06 01:42:19;;;;;;;16.13;8.33;;;;;;;5.20;100.00;101456.63;2097858;28;20180;-64
2023/12/06 01:43:20;;;;;;;16.37;8.97;;;;;;;5.23;100.00;101466.06;2089923;28;20235;-64
2023/12/06 01:44:20;;;;;;;15.50;8.27;;;;;;;5.22;100.00;101458.97;2096465;28;20603;-64
2023/12/06 01:45:21;;;;;;;15.43;9.47;;;;;;;4.80;100.00;101387.06;2098131;28;20689;-64
2023/12/06 01:46:22;;;;;;;16.27;8.70;;;;;;;5.19;100.00;101454.25;2097696;28;20179;-66
2023/12/06 01:47:24;;;;;;;12.87;7.90;;;;;;;5.19;100.00;101451.50;2096527;28;20185;-64
2023/12/06 01:48:25;;;;;;;15.93;8.88;;;;;;;5.18;100.00;101458.94;2089958;28;20246;-64
2023/12/06 01:49:27;;;;;;;15.13;8.05;;;;;;;5.18;100.00;101442.44;2089075;28;20180;-64
2023/12/06 01:50:27;;;;;;;16.15;8.80;;;;;;;5.22;100.00;101456.22;2089006;28;20205;-64
2023/12/06 01:51:30;;;;;;;12.43;8.50;;;;;;;5.20;100.00;101459.38;2095238;28;20179;-65
2023/12/06 01:52:30;;;;;;;16.98;9.30;;;;;;;5.24;100.00;101449.19;2098009;28;20184;-65
2023/12/06 01:53:31;;;;;;;13.83;8.10;;;;;;;5.26;100.00;101457.84;2098185;28;20176;-64
2023/12/06 01:54:32;;;;;;;12.97;7.80;;;;;;;5.18;100.00;101438.94;2098055;28;20179;-65
2023/12/06 01:55:33;;;;;;;15.57;8.67;;;;;;;5.12;100.00;101424.72;2098154;28;20612;-64
2023/12/06 01:56:36;;;;;;;16.53;8.87;;;;;;;5.35;100.00;101460.31;2098131;28;20227;-64
2023/12/06 01:57:36;;;;;;;14.13;8.68;;;;;;;5.34;100.00;101453.22;2098187;28;20269;-65
2023/12/06 01:58:38;;;;;;;12.37;7.80;;;;;;;5.37;100.00;101455.22;2090997;28;20197;-64
2023/12/06 01:59:40;;;;;;;16.65;8.20;;;;;;;5.45;100.00;101454.13;2094256;28;20198;-64
2023/12/06 02:00:41;;;;;;;14.45;8.43;;;;;;;5.43;100.00;101454.50;2093201;28;20184;-64
2023/12/06 02:01:41;;;;;;;14.73;8.57;;;;;;;5.41;100.00;101451.34;2090974;28;20264;-64
2023/12/06 02:02:42;;;;;;;14.73;8.23;;;;;;;5.40;100.00;101455.25;2097184;28;20584;-64
2023/12/06 02:03:43;;;;;;;12.90;8.00;;;;;;;5.46;100.00;101452.94;2098114;28;20174;-65
2023/12/06 02:04:44;;;;;;;13.67;7.63;;;;;;;4.66;100.00;101316.31;2098060;28;20429;-64
2023/12/06 02:05:45;;;;;;;13.40;7.82;;;;;;;5.50;100.00;101454.59;2091497;28;20185;-64
2023/12/06 02:06:46;;;;;;;13.13;8.77;;;;;;;5.47;100.00;101446.28;2094231;28;20211;-64
2023/12/06 02:07:48;;;;;;;13.90;7.88;;;;;;;4.96;100.00;101374.72;2097834;28;20655;-65
2023/12/06 02:08:49;;;;;;;14.68;8.90;;;;;;;5.43;100.00;101448.22;2097776;28;20164;-64
2023/12/06 02:09:50;;;;;;;13.88;7.93;;;;;;;5.38;100.00;101441.09;2097683;28;20200;-65
2023/12/06 02:10:50;;;;;;;17.30;8.60;;;;;;;5.52;100.00;101444.00;2089780;28;20645;-64
2023/12/06 02:11:51;;;;;;;18.43;9.57;;;;;;;5.55;100.00;101445.97;2096495;28;20203;-64
2023/12/06 02:12:51;;;;;;;14.77;9.03;;;;;;;5.45;100.00;101434.88;2091980;28;20250;-64
2023/12/06 02:13:52;;;;;;;16.13;8.43;;;;;;;5.49;100.00;101446.72;2093878;28;20203;-64
2023/12/06 02:14:53;;;;;;;20.33;9.17;;;;;;;5.43;100.00;101440.75;2097709;28;20200;-65
2023/12/06 02:15:54;;;;;;;14.73;8.30;;;;;;;5.47;100.00;101447.09;2096102;28;20165;-64
2023/12/06 02:16:55;;;;;;;14.93;8.15;;;;;;;5.49;100.00;101441.22;2089355;28;20170;-64
2023/12/06 02:17:56;;;;;;;13.63;8.63;;;;;;;5.52;100.00;101441.25;2097564;28;20191;-65
2023/12/06 02:18:57;;;;;;;15.02;8.73;;;;;;;5.52;100.00;101440.44;2090410;28;20184;-64
2023/12/06 02:19:59;;;;;;;14.53;8.33;;;;;;;5.49;100.00;101443.97;2089503;28;20221;-65
2023/12/06 02:20:59;;;;;;;15.40;8.45;;;;;;;5.50;100.00;101443.59;2089525;28;20295;-64
2023/12/06 02:22:01;;;;;;;15.20;9.00;;;;;;;5.55;100.00;101442.44;2089566;28;20180;-64
2023/12/06 02:23:05;;;;;;;15.52;8.38;;;;;;;5.54;100.00;101441.63;2091261;28;20169;-65
2023/12/06 02:24:05;;;;;;;16.00;8.70;;;;;;;5.58;100.00;101442.47;2097000;28;20180;-64
2023/12/06 02:25:13;;;;;;;13.97;7.70;;;;;;;5.26;100.00;101391.09;2089708;28;20210;-64
2023/12/06 02:26:14;;;;;;;18.08;8.63;;;;;;;5.52;100.00;101430.25;2089617;28;20185;-64
2023/12/06 02:27:15;;;;;;;15.67;9.40;;;;;;;5.49;100.00;101436.47;2089038;28;20211;-65
2023/12/06 02:28:15;;;;;;;15.45;9.18;;;;;;;5.44;100.00;101433.31;2089406;28;20302;-65
2023/12/06 02:29:16;;;;;;;17.63;9.70;;;;;;;5.40;100.00;101429.72;2093845;28;20673;-64
2023/12/06 02:30:16;;;;;;;15.57;8.87;;;;;;;5.37;100.00;101423.03;2094032;28;20198;-64
2023/12/06 02:31:17;;;;;;;15.53;8.73;;;;;;;5.39;100.00;101425.41;2091328;28;20182;-64
2023/12/06 02:32:17;;;;;;;15.83;8.13;;;;;;;5.37;100.00;101424.97;2096955;28;20195;-64
2023/12/06 02:33:18;;;;;;;15.70;9.13;;;;;;;5.36;100.00;101429.69;2089533;28;20181;-65
2023/12/06 02:34:26;;;;;;;17.10;8.93;;;;;;;5.34;100.00;101425.75;2097263;28;20233;-64
2023/12/06 02:35:35;;;;;;;15.32;8.85;;;;;;;5.07;100.00;101380.34;2097094;28;20176;-65
2023/12/06 02:36:36;;;;;;;13.05;7.88;;;;;;;5.27;100.00;101418.22;2090752;28;20200;-64
2023/12/06 02:37:40;;;;;;;13.90;8.35;;;;;;;5.04;100.00;101392.06;2089378;28;20183;-64
2023/12/06 02:38:41;;;;;;;14.77;7.75;;;;;;;5.25;100.00;101408.75;2093940;28;20203;-65
2023/12/06 02:39:43;;;;;;;14.57;8.93;;;;;;;4.88;100.00;101356.56;2097776;28;20202;-64
2023/12/06 02:40:46;;;;;;;14.85;8.73;;;;;;;5.35;100.00;101425.38;2094592;28;20673;-64
2023/12/06 02:41:47;;;;;;;17.58;9.32;;;;;;;5.02;100.00;101370.44;2090725;28;20164;-64
2023/12/06 02:42:47;;;;;;;15.07;8.70;;;;;;;5.39;100.00;101428.94;2096929;28;20184;-65
2023/12/06 02:43:48;;;;;;;14.23;8.40;;;;;;;5.41;100.00;101434.03;2097028;28;20168;-65
2023/12/06 02:44:49;;;;;;;13.20;8.40;;;;;;;5.40;100.00;101432.47;2096868;28;20193;-64
2023/12/06 02:45:50;;;;;;;15.40;8.93;;;;;;;5.25;100.00;101408.75;2092003;28;20209;-65
2023/12/06 02:46:50;;;;;;;14.02;8.35;;;;;;;4.85;100.00;101346.34;2093075;28;20225;-64
2023/12/06 02:47:52;;;;;;;13.33;8.30;;;;;;;5.44;100.00;101431.34;2097287;28;20729;-65
2023/12/06 02:48:52;;;;;;;14.85;8.45;;;;;;;5.46;100.00;101423.50;2096774;28;20179;-65
2023/12/06 02:49:53;;;;;;;18.13;9.10;;;;;;;5.46;100.00;101430.97;2089530;28;20187;-64
2023/12/06 02:50:53;;;;;;;15.37;8.67;;;;;;;5.45;100.00;101427.44;2096535;28;20184;-65
2023/12/06 02:51:54;;;;;;;14.30;8.07;;;;;;;5.26;100.00;101415.84;2097106;28;20224;-65
2023/12/06 02:52:55;;;;;;;13.00;7.87;;;;;;;5.00;100.00;101342.59;2096693;28;20180;-64
2023/12/06 02:53:55;;;;;;;13.83;8.67;;;;;;;5.53;100.00;101425.53;2096494;28;20799;-64
2023/12/06 02:54:56;;;;;;;13.77;8.37;;;;;;;5.50;100.00;101432.59;2095398;28;20575;-65
2023/12/06 02:55:56;;;;;;;12.20;7.90;;;;;;;5.50;100.00;101423.53;2089393;28;20177;-64
2023/12/06 02:56:57;;;;;;;12.77;7.93;;;;;;;5.54;100.00;101429.88;2097651;28;20624;-64
2023/12/06 02:57:57;;;;;;;15.10;8.10;;;;;;;5.56;100.00;101427.53;2097396;28;20531;-64
2023/12/06 02:58:58;;;;;;;16.80;9.70;;;;;;;5.52;100.00;101430.25;2091878;28;20621;-64
2023/12/06 02:59:58;;;;;;;11.90;7.73;;;;;;;5.50;100.00;101429.03;2089068;28;20184;-64
2023/12/06 03:00:59;;;;;;;11.70;7.67;;;;;;;5.45;100.00;101421.13;2088928;28;20204;-64
2023/12/06 03:01:59;;;;;;;18.13;9.20;;;;;;;5.49;100.00;101420.00;2089371;28;20210;-65
2023/12/06 03:03:00;;;;;;;13.80;8.17;;;;;;;5.45;100.00;101419.19;2089344;28;20189;-64
2023/12/06 03:04:00;;;;;;;14.80;8.30;;;;;;;5.46;100.00;101417.22;2097375;28;20267;-64
2023/12/06 03:05:01;;;;;;;12.90;8.27;;;;;;;5.47;100.00;101416.03;2089812;28;20187;-64
2023/12/06 03:06:01;;;;;;;15.33;8.47;;;;;;;5.46;100.00;101408.97;2095019;28;20187;-64
2023/12/06 03:07:02;;;;;;;16.57;9.37;;;;;;;5.53;100.00;101420.03;2092661;28;20249;-65
2023/12/06 03:08:03;;;;;;;12.97;8.40;;;;;;;5.44;100.00;101403.84;2088570;28;20231;-64
2023/12/06 03:09:04;;;;;;;16.27;8.13;;;;;;;5.53;100.00;101412.56;2089058;28;20211;-64
2023/12/06 03:10:05;;;;;;;16.13;8.75;;;;;;;5.51;100.00;101414.13;2089033;28;20665;-64
2023/12/06 03:11:06;;;;;;;15.80;8.70;;;;;;;5.48;100.00;101417.66;2089033;28;20172;-64
2023/12/06 03:12:07;;;;;;;15.00;8.30;;;;;;;5.45;100.00;101407.41;2088905;28;20241;-64
2023/12/06 03:13:07;;;;;;;17.00;8.73;;;;;;;5.38;100.00;101408.09;2094412;28;20234;-64
2023/12/06 03:14:08;;;;;;;15.70;8.87;;;;;;;5.37;100.00;101413.97;2097127;28;20179;-65
2023/12/06 03:15:08;;;;;;;15.47;8.40;;;;;;;5.37;100.00;101412.03;2097667;28;20262;-64
2023/12/06 03:16:09;;;;;;;15.17;8.73;;;;;;;5.34;100.00;101412.00;2096146;28;20181;-64
2023/12/06 03:17:09;;;;;;;14.00;8.17;;;;;;;5.15;100.00;101376.47;2088794;28;20271;-64
2023/12/06 03:18:10;;;;;;;14.23;8.50;;;;;;;5.35;100.00;101410.81;2097174;28;20207;-64
2023/12/06 03:19:10;;;;;;;13.23;8.87;;;;;;;5.30;100.00;101413.91;2097176;28;20185;-64
2023/12/06 03:20:12;;;;;;;15.27;8.90;;;;;;;5.26;100.00;101404.84;2091309;28;20195;-64
2023/12/06 03:21:12;;;;;;;13.85;7.70;;;;;;;4.18;100.00;101232.28;2093652;28;20295;-65
2023/12/06 03:22:13;;;;;;;14.40;8.53;;;;;;;5.36;100.00;101426.94;2097649;28;20184;-64
2023/12/06 03:23:13;;;;;;;15.80;8.83;;;;;;;5.31;100.00;101404.50;2097080;28;20178;-65
2023/12/06 03:24:14;;;;;;;14.27;8.43;;;;;;;5.36;100.00;101409.66;2097787;28;20198;-64
2023/12/06 03:25:14;;;;;;;16.63;9.50;;;;;;;5.26;100.00;101391.91;2097065;28;20295;-65
2023/12/06 03:26:15;;;;;;;16.70;8.63;;;;;;;5.38;100.00;101405.34;2090758;28;20204;-64
2023/12/06 03:27:15;;;;;;;15.87;9.20;;;;;;;5.41;100.00;101406.56;2088738;28;20189;-65
2023/12/06 03:28:16;;;;;;;15.97;9.23;;;;;;;5.35;100.00;101400.63;2092076;28;20262;-64
2023/12/06 03:29:16;;;;;;;12.77;8.47;;;;;;;5.35;100.00;101397.88;2095214;28;20169;-64
2023/12/06 03:30:17;;;;;;;14.47;9.20;;;;;;;5.37;100.00;101401.03;2089813;28;20226;-64
2023/12/06 03:31:17;;;;;;;15.47;8.63;;;;;;;5.40;100.00;101407.72;2097273;28;20606;-65
2023/12/06 03:32:18;;;;;;;17.57;9.50;;;;;;;5.39;100.00;101404.19;2105244;28;20743;-64
2023/12/06 03:33:18;;;;;;;12.70;8.27;;;;;;;5.40;100.00;101403.03;2098802;28;20194;-64
2023/12/06 03:34:19;;;;;;;13.40;8.47;;;;;;;5.43;100.00;101407.75;2091951;28;20567;-65
2023/12/06 03:35:19;;;;;;;17.07;9.07;;;;;;;5.40;100.00;101405.00;2089364;28;20647;-64
2023/12/06 03:36:20;;;;;;;15.03;9.10;;;;;;;5.40;100.00;101408.53;2091507;28;20727;-64
2023/12/06 03:37:20;;;;;;;16.97;9.77;;;;;;;5.45;100.00;101410.94;2096964;28;20178;-65
2023/12/06 03:38:21;;;;;;;14.17;8.23;;;;;;;5.48;100.00;101412.16;2097432;28;20275;-64
2023/12/06 03:39:21;;;;;;;15.93;8.47;;;;;;;5.46;100.00;101406.22;2089262;28;20192;-64
2023/12/06 03:40:22;;;;;;;19.07;9.53;;;;;;;5.50;100.00;101409.78;2095522;28;20191;-64
2023/12/06 03:41:22;;;;;;;12.80;8.10;;;;;;;5.54;100.00;101416.91;2097250;28;20191;-64
2023/12/06 03:42:23;;;;;;;16.07;9.10;;;;;;;5.54;100.00;101416.13;2097290;28;20259;-64
2023/12/06 03:43:24;;;;;;;17.50;9.20;;;;;;;5.55;100.00;101407.47;2097209;28;20232;-64
2023/12/06 03:44:25;;;;;;;11.93;7.70;;;;;;;5.58;100.00;101414.16;2097215;28;20203;-64
2023/12/06 03:45:25;;;;;;;15.93;8.83;;;;;;;5.61;100.00;101408.72;2097160;28;20194;-64
2023/12/06 03:46:26;;;;;;;13.50;7.80;;;;;;;5.19;100.00;101353.34;2097263;28;20418;-64
2023/12/06 03:47:26;;;;;;;14.23;8.50;;;;;;;5.60;100.00;101409.09;2091386;28;20204;-64
2023/12/06 03:48:27;;;;;;;17.10;8.77;;;;;;;5.60;100.00;101414.59;2093057;28;20215;-64
2023/12/06 03:49:27;;;;;;;19.13;9.20;;;;;;;5.58;100.00;101412.22;2097250;28;20188;-64
2023/12/06 03:50:28;;;;;;;16.73;9.40;;;;;;;5.57;100.00;101415.34;2096908;28;20209;-65
2023/12/06 03:51:28;;;;;;;15.10;8.93;;;;;;;5.56;100.00;101414.56;2096288;28;20176;-65
2023/12/06 03:52:30;;;;;;;15.33;8.67;;;;;;;5.56;100.00;101417.31;2088447;28;20200;-64
2023/12/06 03:53:30;;;;;;;17.40;8.75;;;;;;;5.55;100.00;101412.97;2096224;28;20241;-64
2023/12/06 03:54:31;;;;;;;18.20;9.57;;;;;;;5.59;100.00;101422.03;2097321;28;20239;-64
2023/12/06 03:55:31;;;;;;;17.37;9.10;;;;;;;5.60;100.00;101418.13;2092515;28;20610;-65
2023/12/06 03:56:32;;;;;;;15.90;9.10;;;;;;;5.57;100.00;101409.84;2089035;28;20669;-64
2023/12/06 03:57:32;;;;;;;18.13;9.73;;;;;;;5.55;100.00;101407.47;2090135;28;20260;-64
2023/12/06 03:58:34;;;;;;;16.13;9.27;;;;;;;4.68;100.00;101277.50;2096299;28;20200;-64
2023/12/06 03:59:35;;;;;;;15.43;9.25;;;;;;;5.55;100.00;101410.22;2089122;28;20180;-64
2023/12/06 04:00:36;;;;;;;13.27;8.70;;;;;;;5.54;100.00;101413.38;2089051;28;20206;-64
2023/12/06 04:01:36;;;;;;;17.37;9.57;;;;;;;5.55;100.00;101412.97;2088746;28;20678;-65
2023/12/06 04:02:38;;;;;;;19.53;9.87;;;;;;;5.56;100.00;101408.28;2094426;28;20189;-64
2023/12/06 04:03:42;;;;;;;15.73;9.18;;;;;;;5.50;100.00;101402.34;2097252;28;20221;-65
2023/12/06 04:04:44;;;;;;;15.40;9.52;;;;;;;5.50;100.00;101404.28;2094143;28;20185;-64
2023/12/06 04:05:45;;;;;;;15.00;8.65;;;;;;;5.47;100.00;101414.09;2088938;28;20801;-64
2023/12/06 04:06:45;;;;;;;18.97;10.07;;;;;;;5.50;100.00;101412.53;2088905;28;20608;-65
2023/12/06 04:07:46;;;;;;;17.27;9.77;;;;;;;4.73;100.00;101283.44;2097379;28;20552;-64
2023/12/06 04:08:46;;;;;;;18.93;9.90;;;;;;;5.54;100.00;101411.41;2097012;28;20558;-64
2023/12/06 04:09:47;;;;;;;20.13;10.23;;;;;;;5.57;100.00;101410.66;2096977;28;20199;-64
2023/12/06 04:10:47;;;;;;;18.13;10.80;;;;;;;5.56;100.00;101406.31;2096940;28;20617;-64
2023/12/06 04:11:48;;;;;;;20.60;10.53;;;;;;;5.52;100.00;101404.69;2092997;28;20176;-65
2023/12/06 04:12:48;;;;;;;17.43;9.57;;;;;;;5.54;100.00;101405.13;2088181;28;20180;-64
2023/12/06 04:13:49;;;;;;;17.50;10.00;;;;;;;5.53;100.00;101401.56;2088297;28;20169;-64
2023/12/06 04:14:50;;;;;;;18.60;10.43;;;;;;;5.54;100.00;101405.91;2096553;28;20190;-64
2023/12/06 04:15:52;;;;;;;19.67;11.57;;;;;;;5.54;100.00;101402.38;2096740;28;20236;-64
2023/12/06 04:16:53;;;;;;;19.08;10.40;;;;;;;5.56;100.00;101405.53;2096753;28;20193;-65
2023/12/06 04:17:54;;;;;;;17.90;10.60;;;;;;;5.46;100.00;101398.78;2096692;28;20195;-64
2023/12/06 04:18:54;;;;;;;18.37;10.90;;;;;;;5.51;100.00;101403.94;2097046;28;20202;-64
2023/12/06 04:19:54;;;;;;;19.47;11.40;;;;;;;5.55;100.00;101407.47;2096929;28;20181;-64
2023/12/06 04:20:55;;;;;;;19.97;11.43;;;;;;;5.53;100.00;101406.31;2096936;28;20181;-64
2023/12/06 04:21:55;;;;;;;19.23;10.70;;;;;;;5.52;100.00;101402.75;2089171;28;20567;-64
2023/12/06 04:22:56;;;;;;;17.77;11.43;;;;;;;5.50;100.00;101405.09;2088578;28;20197;-64
2023/12/06 04:23:56;;;;;;;18.10;10.07;;;;;;;5.49;100.00;101409.00;2093250;28;20215;-64
2023/12/06 04:24:57;;;;;;;21.40;11.47;;;;;;;5.52;100.00;101405.50;2096654;28;20187;-65
2023/12/06 04:25:58;;;;;;;20.30;11.37;;;;;;;5.53;100.00;101411.81;2096741;28;20169;-64
2023/12/06 04:26:59;;;;;;;15.93;9.47;;;;;;;5.39;100.00;101395.94;2095856;28;20195;-64
2023/12/06 04:27:59;;;;;;;17.23;10.83;;;;;;;5.49;100.00;101411.75;2088595;28;20169;-64
2023/12/06 04:29:00;;;;;;;20.00;11.07;;;;;;;5.51;100.00;101409.44;2088970;28;20732;-64
2023/12/06 04:30:00;;;;;;;21.77;11.03;;;;;;;5.51;100.00;101409.44;2094297;28;20200;-64
2023/12/06 04:31:01;;;;;;;21.43;11.23;;;;;;;5.48;100.00;101409.41;2092775;28;20264;-64
2023/12/06 04:32:02;;;;;;;18.53;10.67;;;;;;;5.48;100.00;101409.41;2091585;28;20248;-63
2023/12/06 04:33:02;;;;;;;19.70;11.00;;;;;;;5.45;100.00;101407.41;2096394;28;20174;-64
2023/12/06 04:34:04;;;;;;;22.35;11.00;;;;;;;5.48;100.00;101409.41;2096734;28;20209;-64
2023/12/06 04:35:05;;;;;;;20.87;10.23;;;;;;;5.46;100.00;101406.22;2097767;28;20635;-65
2023/12/06 04:36:06;;;;;;;16.97;10.70;;;;;;;5.47;100.00;101407.78;2090972;28;20193;-64
2023/12/06 04:37:07;;;;;;;23.13;12.63;;;;;;;5.45;100.00;101410.94;2096183;28;20625;-65
2023/12/06 04:38:07;;;;;;;20.47;10.87;;;;;;;5.41;100.00;101407.38;2098496;28;20191;-64